sensor_id;sensor_type;location;lat;lon;timestamp;P1;durP1;ratioP1;P2;durP2;ratioP2
12302;SDS011;6214;48.012;7.862;2023-04-22T00:01:08;18.30;;;3.92;;
12302;SDS011;6214;48.012;7.862;2023-04-22T00:03:35;18.60;;;4.20;;
12302;SDS011;6214;48.012;7.862;2023-04-22T00:06:04;19.60;;;4.30;;
12302;SDS011;6214;48.012;7.862;2023-04-22T00:08:31;19.00;;;4.00;;
12302;SDS011;6214;48.012;7.862;2023-04-22T00:11:00;18.60;;;4.40;;
12302;SDS011;6214;48.012;7.862;2023-04-22T00:13:27;17.92;;;4.00;;
12302;SDS011;6214;48.012;7.862;2023-04-22T00:15:54;18.85;;;4.20;;
12302;SDS011;6214;48.012;7.862;2023-04-22T00:18:21;18.75;;;4.25;;
12302;SDS011;6214;48.012;7.862;2023-04-22T00:20:48;18.70;;;4.60;;
12302;SDS011;6214;48.012;7.862;2023-04-22T00:23:15;18.75;;;4.30;;
12302;SDS011;6214;48.012;7.862;2023-04-22T00:25:42;18.80;;;4.30;;
12302;SDS011;6214;48.012;7.862;2023-04-22T00:28:09;19.20;;;4.68;;
12302;SDS011;6214;48.012;7.862;2023-04-22T00:30:36;19.70;;;4.40;;
12302;SDS011;6214;48.012;7.862;2023-04-22T00:33:03;19.80;;;5.07;;
12302;SDS011;6214;48.012;7.862;2023-04-22T00:35:30;18.38;;;4.22;;
12302;SDS011;6214;48.012;7.862;2023-04-22T00:37:57;19.05;;;4.80;;
12302;SDS011;6214;48.012;7.862;2023-04-22T00:40:24;20.15;;;4.90;;
12302;SDS011;6214;48.012;7.862;2023-04-22T00:42:51;19.75;;;5.10;;
12302;SDS011;6214;48.012;7.862;2023-04-22T00:45:18;19.10;;;4.85;;
12302;SDS011;6214;48.012;7.862;2023-04-22T00:47:46;18.50;;;4.68;;
12302;SDS011;6214;48.012;7.862;2023-04-22T00:50:14;18.33;;;4.65;;
12302;SDS011;6214;48.012;7.862;2023-04-22T00:52:41;20.00;;;5.30;;
12302;SDS011;6214;48.012;7.862;2023-04-22T00:55:09;18.50;;;4.70;;
12302;SDS011;6214;48.012;7.862;2023-04-22T00:57:36;19.20;;;4.90;;
12302;SDS011;6214;48.012;7.862;2023-04-22T01:00:05;18.88;;;4.60;;
12302;SDS011;6214;48.012;7.862;2023-04-22T01:02:32;18.50;;;4.50;;
12302;SDS011;6214;48.012;7.862;2023-04-22T01:05:00;18.63;;;4.47;;
12302;SDS011;6214;48.012;7.862;2023-04-22T01:07:29;19.35;;;5.00;;
12302;SDS011;6214;48.012;7.862;2023-04-22T01:09:56;19.13;;;4.60;;
12302;SDS011;6214;48.012;7.862;2023-04-22T01:12:23;18.20;;;4.30;;
12302;SDS011;6214;48.012;7.862;2023-04-22T01:14:50;19.55;;;5.28;;
12302;SDS011;6214;48.012;7.862;2023-04-22T01:17:17;18.57;;;4.63;;
12302;SDS011;6214;48.012;7.862;2023-04-22T01:19:44;18.60;;;4.57;;
12302;SDS011;6214;48.012;7.862;2023-04-22T01:22:13;18.63;;;4.30;;
12302;SDS011;6214;48.012;7.862;2023-04-22T01:24:40;18.90;;;4.57;;
12302;SDS011;6214;48.012;7.862;2023-04-22T01:27:07;18.17;;;4.35;;
12302;SDS011;6214;48.012;7.862;2023-04-22T01:29:35;18.65;;;4.10;;
12302;SDS011;6214;48.012;7.862;2023-04-22T01:32:04;18.50;;;4.53;;
12302;SDS011;6214;48.012;7.862;2023-04-22T01:34:32;18.40;;;4.50;;
12302;SDS011;6214;48.012;7.862;2023-04-22T01:36:59;19.58;;;5.00;;
12302;SDS011;6214;48.012;7.862;2023-04-22T01:39:26;18.88;;;4.63;;
12302;SDS011;6214;48.012;7.862;2023-04-22T01:41:54;18.50;;;4.80;;
12302;SDS011;6214;48.012;7.862;2023-04-22T01:44:22;19.58;;;5.00;;
12302;SDS011;6214;48.012;7.862;2023-04-22T01:46:49;18.40;;;4.35;;
12302;SDS011;6214;48.012;7.862;2023-04-22T01:49:16;18.33;;;4.43;;
12302;SDS011;6214;48.012;7.862;2023-04-22T01:51:43;19.15;;;4.50;;
12302;SDS011;6214;48.012;7.862;2023-04-22T01:54:10;19.10;;;4.72;;
12302;SDS011;6214;48.012;7.862;2023-04-22T01:56:37;18.77;;;4.80;;
12302;SDS011;6214;48.012;7.862;2023-04-22T01:59:06;19.60;;;5.00;;
12302;SDS011;6214;48.012;7.862;2023-04-22T02:01:34;18.83;;;4.70;;
12302;SDS011;6214;48.012;7.862;2023-04-22T02:04:01;19.40;;;4.90;;
12302;SDS011;6214;48.012;7.862;2023-04-22T02:06:28;19.47;;;5.00;;
12302;SDS011;6214;48.012;7.862;2023-04-22T02:08:55;19.10;;;5.00;;
12302;SDS011;6214;48.012;7.862;2023-04-22T02:11:22;19.25;;;4.88;;
12302;SDS011;6214;48.012;7.862;2023-04-22T02:13:48;19.40;;;4.75;;
12302;SDS011;6214;48.012;7.862;2023-04-22T02:16:16;19.80;;;5.20;;
12302;SDS011;6214;48.012;7.862;2023-04-22T02:18:43;19.85;;;5.18;;
12302;SDS011;6214;48.012;7.862;2023-04-22T02:21:10;18.40;;;4.70;;
12302;SDS011;6214;48.012;7.862;2023-04-22T02:23:37;19.00;;;4.70;;
12302;SDS011;6214;48.012;7.862;2023-04-22T02:26:05;18.50;;;4.60;;
12302;SDS011;6214;48.012;7.862;2023-04-22T02:28:33;18.60;;;4.60;;
12302;SDS011;6214;48.012;7.862;2023-04-22T02:31:00;19.20;;;4.60;;
12302;SDS011;6214;48.012;7.862;2023-04-22T02:33:27;19.30;;;4.75;;
12302;SDS011;6214;48.012;7.862;2023-04-22T02:35:54;18.40;;;4.75;;
12302;SDS011;6214;48.012;7.862;2023-04-22T02:38:21;18.50;;;4.47;;
12302;SDS011;6214;48.012;7.862;2023-04-22T02:40:48;18.10;;;4.20;;
12302;SDS011;6214;48.012;7.862;2023-04-22T02:43:15;18.30;;;4.50;;
12302;SDS011;6214;48.012;7.862;2023-04-22T02:45:42;18.37;;;4.10;;
12302;SDS011;6214;48.012;7.862;2023-04-22T02:48:09;18.50;;;3.92;;
12302;SDS011;6214;48.012;7.862;2023-04-22T02:50:36;18.60;;;4.20;;
12302;SDS011;6214;48.012;7.862;2023-04-22T02:53:03;18.80;;;3.72;;
12302;SDS011;6214;48.012;7.862;2023-04-22T02:55:30;18.70;;;4.10;;
12302;SDS011;6214;48.012;7.862;2023-04-22T02:57:56;17.60;;;3.70;;
12302;SDS011;6214;48.012;7.862;2023-04-22T03:00:23;18.90;;;4.00;;
12302;SDS011;6214;48.012;7.862;2023-04-22T03:02:50;18.00;;;4.20;;
12302;SDS011;6214;48.012;7.862;2023-04-22T03:05:18;18.08;;;3.80;;
12302;SDS011;6214;48.012;7.862;2023-04-22T03:07:45;18.30;;;3.80;;
12302;SDS011;6214;48.012;7.862;2023-04-22T03:10:12;18.30;;;3.90;;
12302;SDS011;6214;48.012;7.862;2023-04-22T03:12:39;17.60;;;3.70;;
12302;SDS011;6214;48.012;7.862;2023-04-22T03:15:06;17.98;;;3.60;;
12302;SDS011;6214;48.012;7.862;2023-04-22T03:17:34;18.60;;;3.78;;
12302;SDS011;6214;48.012;7.862;2023-04-22T03:20:01;18.30;;;3.70;;
12302;SDS011;6214;48.012;7.862;2023-04-22T03:22:28;25.05;;;4.15;;
12302;SDS011;6214;48.012;7.862;2023-04-22T03:24:55;26.40;;;4.03;;
12302;SDS011;6214;48.012;7.862;2023-04-22T03:27:22;20.05;;;3.90;;
12302;SDS011;6214;48.012;7.862;2023-04-22T03:29:49;19.10;;;3.58;;
12302;SDS011;6214;48.012;7.862;2023-04-22T03:32:16;19.97;;;3.80;;
12302;SDS011;6214;48.012;7.862;2023-04-22T03:34:43;21.38;;;3.70;;
12302;SDS011;6214;48.012;7.862;2023-04-22T03:37:10;19.90;;;3.67;;
12302;SDS011;6214;48.012;7.862;2023-04-22T03:39:37;21.98;;;4.00;;
12302;SDS011;6214;48.012;7.862;2023-04-22T03:42:04;26.65;;;4.40;;
12302;SDS011;6214;48.012;7.862;2023-04-22T03:44:31;18.50;;;3.60;;
12302;SDS011;6214;48.012;7.862;2023-04-22T03:46:58;18.10;;;3.80;;
12302;SDS011;6214;48.012;7.862;2023-04-22T03:49:25;18.42;;;4.00;;
12302;SDS011;6214;48.012;7.862;2023-04-22T03:51:52;18.77;;;4.05;;
12302;SDS011;6214;48.012;7.862;2023-04-22T03:54:19;17.83;;;3.83;;
12302;SDS011;6214;48.012;7.862;2023-04-22T03:56:46;18.10;;;3.33;;
12302;SDS011;6214;48.012;7.862;2023-04-22T03:59:13;17.50;;;3.42;;
12302;SDS011;6214;48.012;7.862;2023-04-22T04:01:40;17.23;;;3.00;;
12302;SDS011;6214;48.012;7.862;2023-04-22T04:04:07;17.20;;;2.80;;
12302;SDS011;6214;48.012;7.862;2023-04-22T04:06:35;16.50;;;2.30;;
12302;SDS011;6214;48.012;7.862;2023-04-22T04:09:02;17.52;;;2.72;;
12302;SDS011;6214;48.012;7.862;2023-04-22T04:11:29;16.50;;;2.33;;
12302;SDS011;6214;48.012;7.862;2023-04-22T04:13:56;16.60;;;2.15;;
12302;SDS011;6214;48.012;7.862;2023-04-22T04:16:23;16.48;;;2.05;;
12302;SDS011;6214;48.012;7.862;2023-04-22T04:18:50;16.30;;;2.00;;
12302;SDS011;6214;48.012;7.862;2023-04-22T04:21:17;16.40;;;1.98;;
12302;SDS011;6214;48.012;7.862;2023-04-22T04:23:45;16.92;;;1.85;;
12302;SDS011;6214;48.012;7.862;2023-04-22T04:26:12;16.20;;;1.77;;
12302;SDS011;6214;48.012;7.862;2023-04-22T04:28:40;15.90;;;1.50;;
12302;SDS011;6214;48.012;7.862;2023-04-22T04:31:07;16.17;;;1.70;;
12302;SDS011;6214;48.012;7.862;2023-04-22T04:33:34;16.25;;;1.73;;
12302;SDS011;6214;48.012;7.862;2023-04-22T04:36:02;16.02;;;1.60;;
12302;SDS011;6214;48.012;7.862;2023-04-22T04:38:29;17.40;;;2.00;;
12302;SDS011;6214;48.012;7.862;2023-04-22T04:40:56;17.00;;;1.90;;
12302;SDS011;6214;48.012;7.862;2023-04-22T04:43:23;16.40;;;1.92;;
12302;SDS011;6214;48.012;7.862;2023-04-22T04:45:52;16.30;;;1.85;;
12302;SDS011;6214;48.012;7.862;2023-04-22T04:48:19;16.60;;;2.10;;
12302;SDS011;6214;48.012;7.862;2023-04-22T04:50:46;16.80;;;2.08;;
12302;SDS011;6214;48.012;7.862;2023-04-22T04:53:13;16.23;;;1.90;;
12302;SDS011;6214;48.012;7.862;2023-04-22T04:55:40;16.20;;;1.80;;
12302;SDS011;6214;48.012;7.862;2023-04-22T04:58:07;16.53;;;1.97;;
12302;SDS011;6214;48.012;7.862;2023-04-22T05:00:34;16.73;;;1.70;;
12302;SDS011;6214;48.012;7.862;2023-04-22T05:03:01;16.48;;;1.90;;
12302;SDS011;6214;48.012;7.862;2023-04-22T05:05:28;16.20;;;1.80;;
12302;SDS011;6214;48.012;7.862;2023-04-22T05:07:55;16.42;;;1.75;;
12302;SDS011;6214;48.012;7.862;2023-04-22T05:10:22;16.63;;;2.00;;
12302;SDS011;6214;48.012;7.862;2023-04-22T05:12:50;16.30;;;1.70;;
12302;SDS011;6214;48.012;7.862;2023-04-22T05:15:17;16.20;;;1.80;;
12302;SDS011;6214;48.012;7.862;2023-04-22T05:17:44;16.30;;;1.70;;
12302;SDS011;6214;48.012;7.862;2023-04-22T05:20:11;16.30;;;1.88;;
12302;SDS011;6214;48.012;7.862;2023-04-22T05:22:38;16.10;;;1.60;;
12302;SDS011;6214;48.012;7.862;2023-04-22T05:25:11;16.30;;;2.10;;
12302;SDS011;6214;48.012;7.862;2023-04-22T05:27:39;16.50;;;2.10;;
12302;SDS011;6214;48.012;7.862;2023-04-22T05:30:06;16.23;;;1.70;;
12302;SDS011;6214;48.012;7.862;2023-04-22T05:32:34;16.40;;;2.00;;
12302;SDS011;6214;48.012;7.862;2023-04-22T05:35:01;16.10;;;1.58;;
12302;SDS011;6214;48.012;7.862;2023-04-22T05:37:28;16.02;;;1.60;;
12302;SDS011;6214;48.012;7.862;2023-04-22T05:39:55;16.38;;;2.00;;
12302;SDS011;6214;48.012;7.862;2023-04-22T05:42:22;16.20;;;1.97;;
12302;SDS011;6214;48.012;7.862;2023-04-22T05:44:49;16.10;;;1.60;;
12302;SDS011;6214;48.012;7.862;2023-04-22T05:47:16;16.30;;;1.73;;
12302;SDS011;6214;48.012;7.862;2023-04-22T05:49:43;16.05;;;1.70;;
12302;SDS011;6214;48.012;7.862;2023-04-22T05:52:10;16.10;;;1.80;;
12302;SDS011;6214;48.012;7.862;2023-04-22T05:54:37;16.40;;;1.63;;
12302;SDS011;6214;48.012;7.862;2023-04-22T05:57:04;16.40;;;1.70;;
12302;SDS011;6214;48.012;7.862;2023-04-22T05:59:31;16.70;;;1.80;;
12302;SDS011;6214;48.012;7.862;2023-04-22T06:01:58;16.80;;;1.90;;
12302;SDS011;6214;48.012;7.862;2023-04-22T06:04:25;16.77;;;1.90;;
12302;SDS011;6214;48.012;7.862;2023-04-22T06:06:52;16.70;;;1.98;;
12302;SDS011;6214;48.012;7.862;2023-04-22T06:09:20;16.80;;;1.70;;
12302;SDS011;6214;48.012;7.862;2023-04-22T06:11:47;16.80;;;1.80;;
12302;SDS011;6214;48.012;7.862;2023-04-22T06:14:14;16.75;;;2.00;;
12302;SDS011;6214;48.012;7.862;2023-04-22T06:16:41;16.30;;;1.60;;
12302;SDS011;6214;48.012;7.862;2023-04-22T06:19:08;16.35;;;1.70;;
12302;SDS011;6214;48.012;7.862;2023-04-22T06:21:35;16.25;;;1.70;;
12302;SDS011;6214;48.012;7.862;2023-04-22T06:24:05;16.80;;;2.47;;
12302;SDS011;6214;48.012;7.862;2023-04-22T06:26:32;16.50;;;2.20;;
12302;SDS011;6214;48.012;7.862;2023-04-22T06:28:59;16.50;;;2.30;;
12302;SDS011;6214;48.012;7.862;2023-04-22T06:31:28;16.90;;;2.60;;
12302;SDS011;6214;48.012;7.862;2023-04-22T06:33:55;16.90;;;2.50;;
12302;SDS011;6214;48.012;7.862;2023-04-22T06:36:22;16.50;;;2.30;;
12302;SDS011;6214;48.012;7.862;2023-04-22T06:38:49;16.80;;;2.50;;
12302;SDS011;6214;48.012;7.862;2023-04-22T06:41:16;16.23;;;2.30;;
12302;SDS011;6214;48.012;7.862;2023-04-22T06:43:43;16.30;;;2.47;;
12302;SDS011;6214;48.012;7.862;2023-04-22T06:46:10;16.50;;;2.40;;
12302;SDS011;6214;48.012;7.862;2023-04-22T06:48:37;16.42;;;2.40;;
12302;SDS011;6214;48.012;7.862;2023-04-22T06:51:04;16.85;;;2.63;;
12302;SDS011;6214;48.012;7.862;2023-04-22T06:53:31;16.50;;;2.60;;
12302;SDS011;6214;48.012;7.862;2023-04-22T06:55:58;17.00;;;2.90;;
12302;SDS011;6214;48.012;7.862;2023-04-22T06:58:25;16.80;;;2.70;;
12302;SDS011;6214;48.012;7.862;2023-04-22T07:00:52;16.90;;;2.78;;
12302;SDS011;6214;48.012;7.862;2023-04-22T07:03:19;16.83;;;2.72;;
12302;SDS011;6214;48.012;7.862;2023-04-22T07:05:46;16.50;;;2.30;;
12302;SDS011;6214;48.012;7.862;2023-04-22T07:08:14;16.87;;;2.80;;
12302;SDS011;6214;48.012;7.862;2023-04-22T07:10:41;16.70;;;2.70;;
12302;SDS011;6214;48.012;7.862;2023-04-22T07:13:08;16.58;;;2.67;;
12302;SDS011;6214;48.012;7.862;2023-04-22T07:15:35;16.80;;;2.80;;
12302;SDS011;6214;48.012;7.862;2023-04-22T07:18:01;16.63;;;2.72;;
12302;SDS011;6214;48.012;7.862;2023-04-22T07:20:29;16.80;;;2.70;;
12302;SDS011;6214;48.012;7.862;2023-04-22T07:22:56;16.90;;;2.90;;
12302;SDS011;6214;48.012;7.862;2023-04-22T07:25:23;16.85;;;2.70;;
12302;SDS011;6214;48.012;7.862;2023-04-22T07:27:49;16.90;;;3.00;;
12302;SDS011;6214;48.012;7.862;2023-04-22T07:30:16;16.90;;;3.10;;
12302;SDS011;6214;48.012;7.862;2023-04-22T07:32:43;16.55;;;2.70;;
12302;SDS011;6214;48.012;7.862;2023-04-22T07:35:14;16.80;;;2.97;;
12302;SDS011;6214;48.012;7.862;2023-04-22T07:37:41;16.95;;;2.95;;
12302;SDS011;6214;48.012;7.862;2023-04-22T07:40:08;16.60;;;2.92;;
12302;SDS011;6214;48.012;7.862;2023-04-22T07:42:37;16.63;;;2.90;;
12302;SDS011;6214;48.012;7.862;2023-04-22T07:45:05;16.50;;;2.80;;
12302;SDS011;6214;48.012;7.862;2023-04-22T07:47:33;16.67;;;2.80;;
12302;SDS011;6214;48.012;7.862;2023-04-22T07:50:00;16.33;;;2.65;;
12302;SDS011;6214;48.012;7.862;2023-04-22T07:52:27;17.00;;;3.15;;
12302;SDS011;6214;48.012;7.862;2023-04-22T07:54:55;16.40;;;3.10;;
12302;SDS011;6214;48.012;7.862;2023-04-22T07:57:22;16.40;;;3.00;;
12302;SDS011;6214;48.012;7.862;2023-04-22T07:59:50;16.20;;;3.08;;
12302;SDS011;6214;48.012;7.862;2023-04-22T08:02:17;16.00;;;2.65;;
12302;SDS011;6214;48.012;7.862;2023-04-22T08:04:44;16.27;;;2.92;;
12302;SDS011;6214;48.012;7.862;2023-04-22T08:07:13;16.10;;;2.90;;
12302;SDS011;6214;48.012;7.862;2023-04-22T08:09:58;16.50;;;3.03;;
12302;SDS011;6214;48.012;7.862;2023-04-22T08:12:25;16.30;;;2.83;;
12302;SDS011;6214;48.012;7.862;2023-04-22T08:14:52;16.00;;;2.80;;
12302;SDS011;6214;48.012;7.862;2023-04-22T08:17:19;16.70;;;2.80;;
12302;SDS011;6214;48.012;7.862;2023-04-22T08:19:47;16.00;;;2.63;;
12302;SDS011;6214;48.012;7.862;2023-04-22T08:22:15;16.38;;;2.83;;
12302;SDS011;6214;48.012;7.862;2023-04-22T08:24:43;16.00;;;2.70;;
12302;SDS011;6214;48.012;7.862;2023-04-22T08:27:10;16.27;;;2.85;;
12302;SDS011;6214;48.012;7.862;2023-04-22T08:29:37;16.27;;;2.72;;
12302;SDS011;6214;48.012;7.862;2023-04-22T08:32:05;16.60;;;2.78;;
12302;SDS011;6214;48.012;7.862;2023-04-22T08:34:32;16.20;;;2.50;;
12302;SDS011;6214;48.012;7.862;2023-04-22T08:36:59;15.90;;;2.60;;
12302;SDS011;6214;48.012;7.862;2023-04-22T08:39:26;16.50;;;2.58;;
12302;SDS011;6214;48.012;7.862;2023-04-22T08:41:53;16.00;;;2.70;;
12302;SDS011;6214;48.012;7.862;2023-04-22T08:44:21;15.80;;;2.40;;
12302;SDS011;6214;48.012;7.862;2023-04-22T08:46:49;16.10;;;2.50;;
12302;SDS011;6214;48.012;7.862;2023-04-22T08:49:17;16.30;;;2.70;;
12302;SDS011;6214;48.012;7.862;2023-04-22T08:51:44;16.38;;;2.40;;
12302;SDS011;6214;48.012;7.862;2023-04-22T08:54:11;16.55;;;2.60;;
12302;SDS011;6214;48.012;7.862;2023-04-22T08:56:43;16.10;;;2.20;;
12302;SDS011;6214;48.012;7.862;2023-04-22T08:59:11;16.20;;;2.40;;
12302;SDS011;6214;48.012;7.862;2023-04-22T09:01:39;15.80;;;2.08;;
12302;SDS011;6214;48.012;7.862;2023-04-22T09:04:09;16.20;;;2.33;;
12302;SDS011;6214;48.012;7.862;2023-04-22T09:06:39;15.90;;;2.22;;
12302;SDS011;6214;48.012;7.862;2023-04-22T09:09:06;16.50;;;2.50;;
12302;SDS011;6214;48.012;7.862;2023-04-22T09:11:36;16.38;;;2.30;;
12302;SDS011;6214;48.012;7.862;2023-04-22T09:14:03;16.50;;;2.55;;
12302;SDS011;6214;48.012;7.862;2023-04-22T09:16:31;16.40;;;2.20;;
12302;SDS011;6214;48.012;7.862;2023-04-22T09:18:59;16.15;;;2.45;;
12302;SDS011;6214;48.012;7.862;2023-04-22T09:21:27;16.50;;;2.80;;
12302;SDS011;6214;48.012;7.862;2023-04-22T09:23:55;16.50;;;2.40;;
12302;SDS011;6214;48.012;7.862;2023-04-22T09:26:23;16.30;;;2.40;;
12302;SDS011;6214;48.012;7.862;2023-04-22T09:28:55;16.40;;;2.40;;
12302;SDS011;6214;48.012;7.862;2023-04-22T09:31:24;16.00;;;2.20;;
12302;SDS011;6214;48.012;7.862;2023-04-22T09:33:53;16.00;;;2.03;;
12302;SDS011;6214;48.012;7.862;2023-04-22T09:36:22;15.90;;;2.10;;
12302;SDS011;6214;48.012;7.862;2023-04-22T09:38:56;15.60;;;2.00;;
12302;SDS011;6214;48.012;7.862;2023-04-22T09:41:29;16.30;;;1.90;;
12302;SDS011;6214;48.012;7.862;2023-04-22T09:43:58;15.80;;;2.00;;
12302;SDS011;6214;48.012;7.862;2023-04-22T09:46:27;16.77;;;1.95;;
12302;SDS011;6214;48.012;7.862;2023-04-22T09:48:57;15.50;;;1.70;;
12302;SDS011;6214;48.012;7.862;2023-04-22T09:51:25;15.40;;;1.63;;
12302;SDS011;6214;48.012;7.862;2023-04-22T09:56:42;15.60;;;1.50;;
12302;SDS011;6214;48.012;7.862;2023-04-22T09:59:25;16.30;;;1.80;;
12302;SDS011;6214;48.012;7.862;2023-04-22T10:01:55;15.45;;;1.40;;
12302;SDS011;6214;48.012;7.862;2023-04-22T10:04:23;15.80;;;1.60;;
12302;SDS011;6214;48.012;7.862;2023-04-22T10:06:51;15.95;;;1.60;;
12302;SDS011;6214;48.012;7.862;2023-04-22T10:09:20;16.13;;;1.50;;
12302;SDS011;6214;48.012;7.862;2023-04-22T10:11:49;16.00;;;1.45;;
12302;SDS011;6214;48.012;7.862;2023-04-22T10:14:18;15.55;;;1.42;;
12302;SDS011;6214;48.012;7.862;2023-04-22T10:16:46;15.50;;;1.50;;
12302;SDS011;6214;48.012;7.862;2023-04-22T10:19:19;15.80;;;1.60;;
12302;SDS011;6214;48.012;7.862;2023-04-22T10:21:50;15.90;;;1.60;;
12302;SDS011;6214;48.012;7.862;2023-04-22T10:24:24;15.50;;;1.58;;
12302;SDS011;6214;48.012;7.862;2023-04-22T10:26:53;15.70;;;1.40;;
12302;SDS011;6214;48.012;7.862;2023-04-22T10:29:22;15.60;;;1.50;;
12302;SDS011;6214;48.012;7.862;2023-04-22T10:31:52;15.70;;;1.50;;
12302;SDS011;6214;48.012;7.862;2023-04-22T10:34:20;15.75;;;1.40;;
12302;SDS011;6214;48.012;7.862;2023-04-22T10:36:57;16.30;;;1.60;;
12302;SDS011;6214;48.012;7.862;2023-04-22T10:39:31;15.60;;;1.50;;
12302;SDS011;6214;48.012;7.862;2023-04-22T10:44:29;15.70;;;1.40;;
12302;SDS011;6214;48.012;7.862;2023-04-22T10:47:10;15.60;;;1.33;;
12302;SDS011;6214;48.012;7.862;2023-04-22T10:49:37;15.82;;;1.40;;
12302;SDS011;6214;48.012;7.862;2023-04-22T10:52:05;16.10;;;1.52;;
12302;SDS011;6214;48.012;7.862;2023-04-22T10:57:07;16.23;;;1.37;;
12302;SDS011;6214;48.012;7.862;2023-04-22T10:59:45;15.70;;;1.48;;
12302;SDS011;6214;48.012;7.862;2023-04-22T11:02:20;16.50;;;1.60;;
12302;SDS011;6214;48.012;7.862;2023-04-22T11:04:48;16.33;;;1.60;;
12302;SDS011;6214;48.012;7.862;2023-04-22T11:09:48;16.10;;;1.60;;
12302;SDS011;6214;48.012;7.862;2023-04-22T11:17:47;15.80;;;1.40;;
12302;SDS011;6214;48.012;7.862;2023-04-22T11:20:18;15.93;;;1.50;;
12302;SDS011;6214;48.012;7.862;2023-04-22T11:22:54;15.75;;;1.40;;
12302;SDS011;6214;48.012;7.862;2023-04-22T11:25:22;16.02;;;1.70;;
12302;SDS011;6214;48.012;7.862;2023-04-22T11:27:51;15.80;;;1.40;;
12302;SDS011;6214;48.012;7.862;2023-04-22T11:30:20;16.33;;;1.70;;
12302;SDS011;6214;48.012;7.862;2023-04-22T11:32:50;15.90;;;1.67;;
12302;SDS011;6214;48.012;7.862;2023-04-22T11:37:52;16.17;;;1.60;;
12302;SDS011;6214;48.012;7.862;2023-04-22T11:40:27;15.70;;;1.40;;
12302;SDS011;6214;48.012;7.862;2023-04-22T11:43:00;15.80;;;1.40;;
12302;SDS011;6214;48.012;7.862;2023-04-22T11:45:29;15.70;;;1.40;;
12302;SDS011;6214;48.012;7.862;2023-04-22T11:47:58;15.75;;;1.50;;
12302;SDS011;6214;48.012;7.862;2023-04-22T11:50:27;15.65;;;1.30;;
12302;SDS011;6214;48.012;7.862;2023-04-22T11:52:58;15.80;;;1.50;;
12302;SDS011;6214;48.012;7.862;2023-04-22T11:55:31;16.00;;;1.58;;
12302;SDS011;6214;48.012;7.862;2023-04-22T11:58:04;15.60;;;1.35;;
12302;SDS011;6214;48.012;7.862;2023-04-22T12:00:49;15.95;;;1.30;;
12302;SDS011;6214;48.012;7.862;2023-04-22T12:03:18;15.60;;;1.30;;
12302;SDS011;6214;48.012;7.862;2023-04-22T12:06:00;16.30;;;1.40;;
12302;SDS011;6214;48.012;7.862;2023-04-22T12:08:36;15.98;;;1.50;;
12302;SDS011;6214;48.012;7.862;2023-04-22T12:11:09;16.08;;;1.50;;
12302;SDS011;6214;48.012;7.862;2023-04-22T12:16:11;15.80;;;1.40;;
12302;SDS011;6214;48.012;7.862;2023-04-22T12:18:49;15.80;;;1.40;;
12302;SDS011;6214;48.012;7.862;2023-04-22T12:21:24;15.80;;;1.50;;
12302;SDS011;6214;48.012;7.862;2023-04-22T12:23:54;16.00;;;1.52;;
12302;SDS011;6214;48.012;7.862;2023-04-22T12:26:26;15.90;;;1.50;;
12302;SDS011;6214;48.012;7.862;2023-04-22T12:28:54;15.90;;;1.40;;
12302;SDS011;6214;48.012;7.862;2023-04-22T12:31:23;15.90;;;1.40;;
12302;SDS011;6214;48.012;7.862;2023-04-22T12:33:50;16.10;;;1.70;;
12302;SDS011;6214;48.012;7.862;2023-04-22T12:36:17;16.02;;;1.40;;
12302;SDS011;6214;48.012;7.862;2023-04-22T12:38:48;15.90;;;1.60;;
12302;SDS011;6214;48.012;7.862;2023-04-22T12:41:16;15.80;;;1.40;;
12302;SDS011;6214;48.012;7.862;2023-04-22T12:43:43;15.65;;;1.42;;
12302;SDS011;6214;48.012;7.862;2023-04-22T12:46:10;16.20;;;1.60;;
12302;SDS011;6214;48.012;7.862;2023-04-22T12:48:37;15.70;;;1.40;;
12302;SDS011;6214;48.012;7.862;2023-04-22T12:51:04;15.70;;;1.40;;
12302;SDS011;6214;48.012;7.862;2023-04-22T12:53:32;15.88;;;1.65;;
12302;SDS011;6214;48.012;7.862;2023-04-22T12:56:00;15.80;;;1.52;;
12302;SDS011;6214;48.012;7.862;2023-04-22T12:58:27;15.60;;;1.50;;
12302;SDS011;6214;48.012;7.862;2023-04-22T13:00:54;15.70;;;1.40;;
12302;SDS011;6214;48.012;7.862;2023-04-22T13:03:21;16.25;;;1.60;;
12302;SDS011;6214;48.012;7.862;2023-04-22T13:05:48;16.07;;;1.80;;
12302;SDS011;6214;48.012;7.862;2023-04-22T13:08:16;15.60;;;1.40;;
12302;SDS011;6214;48.012;7.862;2023-04-22T13:10:43;15.88;;;1.50;;
12302;SDS011;6214;48.012;7.862;2023-04-22T13:13:10;16.00;;;1.60;;
12302;SDS011;6214;48.012;7.862;2023-04-22T13:15:39;15.70;;;1.50;;
12302;SDS011;6214;48.012;7.862;2023-04-22T13:18:07;15.90;;;1.50;;
12302;SDS011;6214;48.012;7.862;2023-04-22T13:20:34;16.10;;;1.50;;
12302;SDS011;6214;48.012;7.862;2023-04-22T13:23:01;15.70;;;1.40;;
12302;SDS011;6214;48.012;7.862;2023-04-22T13:25:30;15.70;;;1.50;;
12302;SDS011;6214;48.012;7.862;2023-04-22T13:27:57;15.50;;;1.30;;
12302;SDS011;6214;48.012;7.862;2023-04-22T13:30:24;15.90;;;1.80;;
12302;SDS011;6214;48.012;7.862;2023-04-22T13:32:51;15.70;;;1.40;;
12302;SDS011;6214;48.012;7.862;2023-04-22T13:35:18;16.60;;;1.70;;
12302;SDS011;6214;48.012;7.862;2023-04-22T13:37:46;15.90;;;1.60;;
12302;SDS011;6214;48.012;7.862;2023-04-22T13:40:13;15.77;;;1.60;;
12302;SDS011;6214;48.012;7.862;2023-04-22T13:42:40;16.60;;;1.80;;
12302;SDS011;6214;48.012;7.862;2023-04-22T13:45:09;16.57;;;1.90;;
12302;SDS011;6214;48.012;7.862;2023-04-22T13:47:36;17.65;;;2.63;;
12302;SDS011;6214;48.012;7.862;2023-04-22T13:50:03;16.10;;;1.77;;
12302;SDS011;6214;48.012;7.862;2023-04-22T13:52:31;15.98;;;1.52;;
12302;SDS011;6214;48.012;7.862;2023-04-22T13:54:59;16.00;;;1.80;;
12302;SDS011;6214;48.012;7.862;2023-04-22T13:57:27;16.23;;;1.70;;
12302;SDS011;6214;48.012;7.862;2023-04-22T13:59:54;16.30;;;1.52;;
12302;SDS011;6214;48.012;7.862;2023-04-22T14:02:21;15.70;;;1.60;;
12302;SDS011;6214;48.012;7.862;2023-04-22T14:04:48;15.70;;;1.48;;
12302;SDS011;6214;48.012;7.862;2023-04-22T14:07:15;16.25;;;1.50;;
12302;SDS011;6214;48.012;7.862;2023-04-22T14:09:42;15.73;;;1.60;;
12302;SDS011;6214;48.012;7.862;2023-04-22T14:12:10;16.40;;;1.70;;
12302;SDS011;6214;48.012;7.862;2023-04-22T14:14:37;15.98;;;1.60;;
12302;SDS011;6214;48.012;7.862;2023-04-22T14:17:04;16.48;;;1.50;;
12302;SDS011;6214;48.012;7.862;2023-04-22T14:19:32;15.80;;;1.50;;
12302;SDS011;6214;48.012;7.862;2023-04-22T14:21:59;16.00;;;1.70;;
12302;SDS011;6214;48.012;7.862;2023-04-22T14:24:26;15.90;;;1.60;;
12302;SDS011;6214;48.012;7.862;2023-04-22T14:26:53;15.90;;;1.45;;
12302;SDS011;6214;48.012;7.862;2023-04-22T14:29:24;16.00;;;1.60;;
12302;SDS011;6214;48.012;7.862;2023-04-22T14:31:51;15.80;;;1.40;;
12302;SDS011;6214;48.012;7.862;2023-04-22T14:34:18;16.30;;;1.50;;
12302;SDS011;6214;48.012;7.862;2023-04-22T14:36:45;15.80;;;1.40;;
12302;SDS011;6214;48.012;7.862;2023-04-22T14:39:12;15.90;;;1.50;;
12302;SDS011;6214;48.012;7.862;2023-04-22T14:41:39;15.65;;;1.50;;
12302;SDS011;6214;48.012;7.862;2023-04-22T14:44:06;16.30;;;1.50;;
12302;SDS011;6214;48.012;7.862;2023-04-22T14:46:33;15.80;;;1.50;;
12302;SDS011;6214;48.012;7.862;2023-04-22T14:49:00;15.90;;;1.60;;
12302;SDS011;6214;48.012;7.862;2023-04-22T14:51:27;16.30;;;1.50;;
12302;SDS011;6214;48.012;7.862;2023-04-22T14:53:56;15.60;;;1.20;;
12302;SDS011;6214;48.012;7.862;2023-04-22T14:56:23;16.08;;;1.63;;
12302;SDS011;6214;48.012;7.862;2023-04-22T14:58:50;16.20;;;1.63;;
12302;SDS011;6214;48.012;7.862;2023-04-22T15:01:17;15.93;;;1.42;;
12302;SDS011;6214;48.012;7.862;2023-04-22T15:03:46;16.13;;;1.52;;
12302;SDS011;6214;48.012;7.862;2023-04-22T15:06:14;16.30;;;1.45;;
12302;SDS011;6214;48.012;7.862;2023-04-22T15:08:41;16.35;;;1.40;;
12302;SDS011;6214;48.012;7.862;2023-04-22T15:11:08;16.00;;;1.70;;
12302;SDS011;6214;48.012;7.862;2023-04-22T15:13:35;15.90;;;1.30;;